sensor_id;sensor_type;location;lat;lon;timestamp;P1;durP1;ratioP1;P2;durP2;ratioP2
64367;SDS011;50692;53.314;-6.300;2023-07-08T00:00:13;4.85;;;2.35;;
64367;SDS011;50692;53.314;-6.300;2023-07-08T00:03:02;3.60;;;2.30;;
64367;SDS011;50692;53.314;-6.300;2023-07-08T00:05:49;4.28;;;2.15;;
64367;SDS011;50692;53.314;-6.300;2023-07-08T00:08:39;4.53;;;2.47;;
64367;SDS011;50692;53.314;-6.300;2023-07-08T00:11:26;4.65;;;2.40;;
64367;SDS011;50692;53.314;-6.300;2023-07-08T00:14:14;6.03;;;2.55;;
64367;SDS011;50692;53.314;-6.300;2023-07-08T00:17:01;4.47;;;2.60;;
64367;SDS011;50692;53.314;-6.300;2023-07-08T00:19:47;5.30;;;2.50;;
64367;SDS011;50692;53.314;-6.300;2023-07-08T00:22:33;3.60;;;2.50;;
64367;SDS011;50692;53.314;-6.300;2023-07-08T00:25:20;4.75;;;2.47;;
64367;SDS011;50692;53.314;-6.300;2023-07-08T00:28:14;3.80;;;2.53;;
64367;SDS011;50692;53.314;-6.300;2023-07-08T00:31:02;4.75;;;2.33;;
64367;SDS011;50692;53.314;-6.300;2023-07-08T00:33:48;5.35;;;2.72;;
64367;SDS011;50692;53.314;-6.300;2023-07-08T00:36:34;4.78;;;2.40;;
64367;SDS011;50692;53.314;-6.300;2023-07-08T00:39:20;4.53;;;2.42;;
64367;SDS011;50692;53.314;-6.300;2023-07-08T00:42:11;4.03;;;2.50;;
64367;SDS011;50692;53.314;-6.300;2023-07-08T00:45:04;4.28;;;3.03;;
64367;SDS011;50692;53.314;-6.300;2023-07-08T00:48:23;5.78;;;2.53;;
64367;SDS011;50692;53.314;-6.300;2023-07-08T00:51:13;2.72;;;2.42;;
64367;SDS011;50692;53.314;-6.300;2023-07-08T00:54:12;8.30;;;3.03;;
64367;SDS011;50692;53.314;-6.300;2023-07-08T00:56:59;5.75;;;2.50;;
64367;SDS011;50692;53.314;-6.300;2023-07-08T01:00:06;5.50;;;3.17;;
64367;SDS011;50692;53.314;-6.300;2023-07-08T01:02:55;6.63;;;2.90;;
64367;SDS011;50692;53.314;-6.300;2023-07-08T01:05:42;4.22;;;2.63;;
64367;SDS011;50692;53.314;-6.300;2023-07-08T01:08:29;4.13;;;2.50;;
64367;SDS011;50692;53.314;-6.300;2023-07-08T01:11:16;5.43;;;3.15;;
64367;SDS011;50692;53.314;-6.300;2023-07-08T01:14:01;6.00;;;2.75;;
64367;SDS011;50692;53.314;-6.300;2023-07-08T01:16:50;6.80;;;2.90;;
64367;SDS011;50692;53.314;-6.300;2023-07-08T01:19:36;4.40;;;2.78;;
64367;SDS011;50692;53.314;-6.300;2023-07-08T01:22:23;5.65;;;3.13;;
64367;SDS011;50692;53.314;-6.300;2023-07-08T01:25:09;4.50;;;3.00;;
64367;SDS011;50692;53.314;-6.300;2023-07-08T01:27:57;5.82;;;3.17;;
64367;SDS011;50692;53.314;-6.300;2023-07-08T01:30:44;5.00;;;3.13;;
64367;SDS011;50692;53.314;-6.300;2023-07-08T01:33:31;4.38;;;2.97;;
64367;SDS011;50692;53.314;-6.300;2023-07-08T01:36:19;5.25;;;3.08;;
64367;SDS011;50692;53.314;-6.300;2023-07-08T01:39:05;3.88;;;2.80;;
64367;SDS011;50692;53.314;-6.300;2023-07-08T01:41:51;4.20;;;2.92;;
64367;SDS011;50692;53.314;-6.300;2023-07-08T01:44:38;7.88;;;3.42;;
64367;SDS011;50692;53.314;-6.300;2023-07-08T01:47:24;4.45;;;3.20;;
64367;SDS011;50692;53.314;-6.300;2023-07-08T01:50:10;6.40;;;3.50;;
64367;SDS011;50692;53.314;-6.300;2023-07-08T01:52:58;6.22;;;3.47;;
64367;SDS011;50692;53.314;-6.300;2023-07-08T01:55:45;4.72;;;3.38;;
64367;SDS011;50692;53.314;-6.300;2023-07-08T01:58:31;5.40;;;3.47;;
64367;SDS011;50692;53.314;-6.300;2023-07-08T02:01:17;5.38;;;3.45;;
64367;SDS011;50692;53.314;-6.300;2023-07-08T02:04:03;6.75;;;3.40;;
64367;SDS011;50692;53.314;-6.300;2023-07-08T02:06:53;4.72;;;3.33;;
64367;SDS011;50692;53.314;-6.300;2023-07-08T02:09:40;5.78;;;3.53;;
64367;SDS011;50692;53.314;-6.300;2023-07-08T02:12:26;6.75;;;4.13;;
64367;SDS011;50692;53.314;-6.300;2023-07-08T02:15:12;5.50;;;3.80;;
64367;SDS011;50692;53.314;-6.300;2023-07-08T02:17:57;5.95;;;3.33;;
64367;SDS011;50692;53.314;-6.300;2023-07-08T02:20:43;5.28;;;3.20;;
64367;SDS011;50692;53.314;-6.300;2023-07-08T02:23:29;4.60;;;3.20;;
64367;SDS011;50692;53.314;-6.300;2023-07-08T02:26:15;6.20;;;3.72;;
64367;SDS011;50692;53.314;-6.300;2023-07-08T02:29:01;8.02;;;3.53;;
64367;SDS011;50692;53.314;-6.300;2023-07-08T02:31:48;7.20;;;3.88;;
64367;SDS011;50692;53.314;-6.300;2023-07-08T02:34:33;5.55;;;3.85;;
64367;SDS011;50692;53.314;-6.300;2023-07-08T02:37:19;5.28;;;3.72;;
64367;SDS011;50692;53.314;-6.300;2023-07-08T02:40:05;5.95;;;3.38;;
64367;SDS011;50692;53.314;-6.300;2023-07-08T02:42:51;5.78;;;4.00;;
64367;SDS011;50692;53.314;-6.300;2023-07-08T02:45:37;4.90;;;3.65;;
64367;SDS011;50692;53.314;-6.300;2023-07-08T02:48:23;5.05;;;3.60;;
64367;SDS011;50692;53.314;-6.300;2023-07-08T02:51:09;4.57;;;3.28;;
64367;SDS011;50692;53.314;-6.300;2023-07-08T02:53:55;5.70;;;3.95;;
64367;SDS011;50692;53.314;-6.300;2023-07-08T02:56:41;8.88;;;3.85;;
64367;SDS011;50692;53.314;-6.300;2023-07-08T02:59:27;9.85;;;4.40;;
64367;SDS011;50692;53.314;-6.300;2023-07-08T03:02:13;6.50;;;4.18;;
64367;SDS011;50692;53.314;-6.300;2023-07-08T03:04:59;5.60;;;3.70;;
64367;SDS011;50692;53.314;-6.300;2023-07-08T03:07:46;6.65;;;4.40;;
64367;SDS011;50692;53.314;-6.300;2023-07-08T03:10:32;8.90;;;4.00;;
64367;SDS011;50692;53.314;-6.300;2023-07-08T03:13:17;7.18;;;3.85;;
64367;SDS011;50692;53.314;-6.300;2023-07-08T03:16:03;6.82;;;3.55;;
64367;SDS011;50692;53.314;-6.300;2023-07-08T03:18:57;7.20;;;4.10;;
64367;SDS011;50692;53.314;-6.300;2023-07-08T03:21:43;7.85;;;4.03;;
64367;SDS011;50692;53.314;-6.300;2023-07-08T03:24:29;8.75;;;4.05;;
64367;SDS011;50692;53.314;-6.300;2023-07-08T03:27:15;9.77;;;4.07;;
64367;SDS011;50692;53.314;-6.300;2023-07-08T03:30:02;10.35;;;4.38;;
64367;SDS011;50692;53.314;-6.300;2023-07-08T03:32:50;8.30;;;4.07;;
64367;SDS011;50692;53.314;-6.300;2023-07-08T03:35:36;8.35;;;3.88;;
64367;SDS011;50692;53.314;-6.300;2023-07-08T03:38:23;9.10;;;4.53;;
64367;SDS011;50692;53.314;-6.300;2023-07-08T03:41:09;8.93;;;3.97;;
64367;SDS011;50692;53.314;-6.300;2023-07-08T03:43:55;6.47;;;3.75;;
64367;SDS011;50692;53.314;-6.300;2023-07-08T03:46:42;6.78;;;3.85;;
64367;SDS011;50692;53.314;-6.300;2023-07-08T03:49:29;7.40;;;4.30;;
64367;SDS011;50692;53.314;-6.300;2023-07-08T03:52:15;5.65;;;3.72;;
64367;SDS011;50692;53.314;-6.300;2023-07-08T03:55:02;6.32;;;3.60;;
64367;SDS011;50692;53.314;-6.300;2023-07-08T03:57:49;7.85;;;5.15;;
64367;SDS011;50692;53.314;-6.300;2023-07-08T04:00:34;9.95;;;4.20;;
64367;SDS011;50692;53.314;-6.300;2023-07-08T04:03:20;5.07;;;3.97;;
64367;SDS011;50692;53.314;-6.300;2023-07-08T04:06:06;6.82;;;4.20;;
64367;SDS011;50692;53.314;-6.300;2023-07-08T04:08:52;7.45;;;4.57;;
64367;SDS011;50692;53.314;-6.300;2023-07-08T04:11:38;6.90;;;3.90;;
64367;SDS011;50692;53.314;-6.300;2023-07-08T04:14:23;7.25;;;3.88;;
64367;SDS011;50692;53.314;-6.300;2023-07-08T04:17:09;7.43;;;4.03;;
64367;SDS011;50692;53.314;-6.300;2023-07-08T04:19:56;6.13;;;4.38;;
64367;SDS011;50692;53.314;-6.300;2023-07-08T04:22:42;6.93;;;3.75;;
64367;SDS011;50692;53.314;-6.300;2023-07-08T04:25:28;5.53;;;3.60;;
64367;SDS011;50692;53.314;-6.300;2023-07-08T04:28:13;8.18;;;4.07;;
64367;SDS011;50692;53.314;-6.300;2023-07-08T04:31:01;7.10;;;3.40;;
64367;SDS011;50692;53.314;-6.300;2023-07-08T04:33:47;7.90;;;3.92;;
64367;SDS011;50692;53.314;-6.300;2023-07-08T04:36:33;8.80;;;4.30;;
64367;SDS011;50692;53.314;-6.300;2023-07-08T04:39:19;7.65;;;3.55;;
64367;SDS011;50692;53.314;-6.300;2023-07-08T04:42:05;7.80;;;4.43;;
64367;SDS011;50692;53.314;-6.300;2023-07-08T04:44:51;9.98;;;4.20;;
64367;SDS011;50692;53.314;-6.300;2023-07-08T04:47:38;6.32;;;4.07;;
64367;SDS011;50692;53.314;-6.300;2023-07-08T04:50:24;7.55;;;4.15;;
64367;SDS011;50692;53.314;-6.300;2023-07-08T04:53:10;5.95;;;3.47;;
64367;SDS011;50692;53.314;-6.300;2023-07-08T04:55:58;8.38;;;4.70;;
64367;SDS011;50692;53.314;-6.300;2023-07-08T04:58:44;9.25;;;4.90;;
64367;SDS011;50692;53.314;-6.300;2023-07-08T05:01:30;10.18;;;4.82;;
64367;SDS011;50692;53.314;-6.300;2023-07-08T05:04:17;9.73;;;4.60;;
64367;SDS011;50692;53.314;-6.300;2023-07-08T05:07:05;9.02;;;4.93;;
64367;SDS011;50692;53.314;-6.300;2023-07-08T05:09:50;9.13;;;5.10;;
64367;SDS011;50692;53.314;-6.300;2023-07-08T05:12:36;8.32;;;4.40;;
64367;SDS011;50692;53.314;-6.300;2023-07-08T05:15:22;9.75;;;5.13;;
64367;SDS011;50692;53.314;-6.300;2023-07-08T05:18:08;8.52;;;4.53;;
64367;SDS011;50692;53.314;-6.300;2023-07-08T05:20:55;10.07;;;5.10;;
64367;SDS011;50692;53.314;-6.300;2023-07-08T05:23:41;12.30;;;5.25;;
64367;SDS011;50692;53.314;-6.300;2023-07-08T05:26:29;9.38;;;4.97;;
64367;SDS011;50692;53.314;-6.300;2023-07-08T05:29:17;7.72;;;4.47;;
64367;SDS011;50692;53.314;-6.300;2023-07-08T05:32:03;8.25;;;5.20;;
64367;SDS011;50692;53.314;-6.300;2023-07-08T05:34:49;9.25;;;4.85;;
64367;SDS011;50692;53.314;-6.300;2023-07-08T05:37:35;10.10;;;4.70;;
64367;SDS011;50692;53.314;-6.300;2023-07-08T05:40:21;10.48;;;4.78;;
64367;SDS011;50692;53.314;-6.300;2023-07-08T05:43:07;8.63;;;4.70;;
64367;SDS011;50692;53.314;-6.300;2023-07-08T05:45:57;6.68;;;4.30;;
64367;SDS011;50692;53.314;-6.300;2023-07-08T05:48:44;9.00;;;4.07;;
64367;SDS011;50692;53.314;-6.300;2023-07-08T05:51:30;8.23;;;3.78;;
64367;SDS011;50692;53.314;-6.300;2023-07-08T05:54:16;12.25;;;4.60;;
64367;SDS011;50692;53.314;-6.300;2023-07-08T05:57:01;7.75;;;3.33;;
64367;SDS011;50692;53.314;-6.300;2023-07-08T05:59:47;6.55;;;3.63;;
64367;SDS011;50692;53.314;-6.300;2023-07-08T06:02:36;8.10;;;3.63;;
64367;SDS011;50692;53.314;-6.300;2023-07-08T06:05:22;10.02;;;4.13;;
64367;SDS011;50692;53.314;-6.300;2023-07-08T06:08:08;6.15;;;2.13;;
64367;SDS011;50692;53.314;-6.300;2023-07-08T06:10:54;5.32;;;3.17;;
64367;SDS011;50692;53.314;-6.300;2023-07-08T06:13:39;5.82;;;1.95;;
64367;SDS011;50692;53.314;-6.300;2023-07-08T06:16:25;4.70;;;2.13;;
64367;SDS011;50692;53.314;-6.300;2023-07-08T06:19:13;5.63;;;2.45;;
64367;SDS011;50692;53.314;-6.300;2023-07-08T06:22:00;8.70;;;2.60;;
64367;SDS011;50692;53.314;-6.300;2023-07-08T06:24:46;7.55;;;2.67;;
64367;SDS011;50692;53.314;-6.300;2023-07-08T06:27:32;5.13;;;2.20;;
64367;SDS011;50692;53.314;-6.300;2023-07-08T06:30:19;7.38;;;2.92;;
64367;SDS011;50692;53.314;-6.300;2023-07-08T06:33:04;9.55;;;2.95;;
64367;SDS011;50692;53.314;-6.300;2023-07-08T06:35:50;4.78;;;2.78;;
64367;SDS011;50692;53.314;-6.300;2023-07-08T06:38:36;9.48;;;2.47;;
64367;SDS011;50692;53.314;-6.300;2023-07-08T06:41:22;6.53;;;2.60;;
64367;SDS011;50692;53.314;-6.300;2023-07-08T06:44:08;5.22;;;2.15;;
64367;SDS011;50692;53.314;-6.300;2023-07-08T06:46:53;8.13;;;2.85;;
64367;SDS011;50692;53.314;-6.300;2023-07-08T06:49:41;8.63;;;2.80;;
64367;SDS011;50692;53.314;-6.300;2023-07-08T06:52:27;7.30;;;2.30;;
64367;SDS011;50692;53.314;-6.300;2023-07-08T06:55:13;8.48;;;2.72;;
64367;SDS011;50692;53.314;-6.300;2023-07-08T06:57:59;6.80;;;2.45;;
64367;SDS011;50692;53.314;-6.300;2023-07-08T07:00:45;9.68;;;3.13;;
64367;SDS011;50692;53.314;-6.300;2023-07-08T07:03:31;8.70;;;3.00;;
64367;SDS011;50692;53.314;-6.300;2023-07-08T07:06:17;9.75;;;2.33;;
64367;SDS011;50692;53.314;-6.300;2023-07-08T07:09:02;6.15;;;2.15;;
64367;SDS011;50692;53.314;-6.300;2023-07-08T07:11:48;6.63;;;2.25;;
64367;SDS011;50692;53.314;-6.300;2023-07-08T07:14:34;8.48;;;2.47;;
64367;SDS011;50692;53.314;-6.300;2023-07-08T07:17:20;4.95;;;1.88;;
64367;SDS011;50692;53.314;-6.300;2023-07-08T07:20:07;8.30;;;2.08;;
64367;SDS011;50692;53.314;-6.300;2023-07-08T07:22:53;6.70;;;1.90;;
64367;SDS011;50692;53.314;-6.300;2023-07-08T07:25:40;3.80;;;1.55;;
64367;SDS011;50692;53.314;-6.300;2023-07-08T07:28:26;8.02;;;2.13;;
64367;SDS011;50692;53.314;-6.300;2023-07-08T07:31:11;6.97;;;2.33;;
64367;SDS011;50692;53.314;-6.300;2023-07-08T07:33:58;7.50;;;2.00;;
64367;SDS011;50692;53.314;-6.300;2023-07-08T07:36:44;8.65;;;2.22;;
64367;SDS011;50692;53.314;-6.300;2023-07-08T07:39:30;5.80;;;1.88;;
64367;SDS011;50692;53.314;-6.300;2023-07-08T07:42:17;7.22;;;2.28;;
64367;SDS011;50692;53.314;-6.300;2023-07-08T07:45:04;5.93;;;1.95;;
64367;SDS011;50692;53.314;-6.300;2023-07-08T07:47:51;7.65;;;2.03;;
64367;SDS011;50692;53.314;-6.300;2023-07-08T07:50:36;5.70;;;1.70;;
64367;SDS011;50692;53.314;-6.300;2023-07-08T07:53:23;6.22;;;2.00;;
64367;SDS011;50692;53.314;-6.300;2023-07-08T07:56:10;7.00;;;1.90;;
64367;SDS011;50692;53.314;-6.300;2023-07-08T07:58:57;5.32;;;1.80;;
64367;SDS011;50692;53.314;-6.300;2023-07-08T08:01:43;5.30;;;1.85;;
64367;SDS011;50692;53.314;-6.300;2023-07-08T08:04:29;4.97;;;1.33;;
64367;SDS011;50692;53.314;-6.300;2023-07-08T08:07:15;6.38;;;1.80;;
64367;SDS011;50692;53.314;-6.300;2023-07-08T08:10:01;4.25;;;1.52;;
64367;SDS011;50692;53.314;-6.300;2023-07-08T08:12:47;6.20;;;1.48;;
64367;SDS011;50692;53.314;-6.300;2023-07-08T08:15:35;3.67;;;1.35;;
64367;SDS011;50692;53.314;-6.300;2023-07-08T08:18:22;6.07;;;1.55;;
64367;SDS011;50692;53.314;-6.300;2023-07-08T08:21:08;6.22;;;1.90;;
64367;SDS011;50692;53.314;-6.300;2023-07-08T08:23:55;7.38;;;1.30;;
64367;SDS011;50692;53.314;-6.300;2023-07-08T08:26:44;3.97;;;1.30;;
64367;SDS011;50692;53.314;-6.300;2023-07-08T08:29:30;3.50;;;1.40;;
64367;SDS011;50692;53.314;-6.300;2023-07-08T08:32:16;2.95;;;1.08;;
64367;SDS011;50692;53.314;-6.300;2023-07-08T08:35:02;4.68;;;1.20;;
64367;SDS011;50692;53.314;-6.300;2023-07-08T08:37:48;5.65;;;1.20;;
64367;SDS011;50692;53.314;-6.300;2023-07-08T08:40:34;3.63;;;1.30;;
64367;SDS011;50692;53.314;-6.300;2023-07-08T08:43:24;6.03;;;1.40;;
64367;SDS011;50692;53.314;-6.300;2023-07-08T08:52:36;3.53;;;0.93;;
64367;SDS011;50692;53.314;-6.300;2023-07-08T08:55:26;3.30;;;1.05;;
64367;SDS011;50692;53.314;-6.300;2023-07-08T09:01:16;4.32;;;1.25;;
64367;SDS011;50692;53.314;-6.300;2023-07-08T09:04:03;2.90;;;1.20;;
64367;SDS011;50692;53.314;-6.300;2023-07-08T09:07:06;5.57;;;1.40;;
64367;SDS011;50692;53.314;-6.300;2023-07-08T09:10:03;4.95;;;0.90;;
64367;SDS011;50692;53.314;-6.300;2023-07-08T09:12:55;4.90;;;1.25;;
64367;SDS011;50692;53.314;-6.300;2023-07-08T09:15:42;4.97;;;1.38;;
64367;SDS011;50692;53.314;-6.300;2023-07-08T09:18:31;4.22;;;1.25;;
64367;SDS011;50692;53.314;-6.300;2023-07-08T09:21:30;4.18;;;1.08;;
64367;SDS011;50692;53.314;-6.300;2023-07-08T09:24:26;4.03;;;1.80;;
64367;SDS011;50692;53.314;-6.300;2023-07-08T09:27:14;5.20;;;1.23;;
64367;SDS011;50692;53.314;-6.300;2023-07-08T09:30:00;4.55;;;1.52;;
64367;SDS011;50692;53.314;-6.300;2023-07-08T09:32:46;5.30;;;1.40;;
64367;SDS011;50692;53.314;-6.300;2023-07-08T09:35:46;3.92;;;1.05;;
64367;SDS011;50692;53.314;-6.300;2023-07-08T09:38:33;3.30;;;1.50;;
64367;SDS011;50692;53.314;-6.300;2023-07-08T09:41:28;2.88;;;1.10;;
64367;SDS011;50692;53.314;-6.300;2023-07-08T09:44:25;1.98;;;1.08;;
64367;SDS011;50692;53.314;-6.300;2023-07-08T09:47:35;3.67;;;1.17;;
64367;SDS011;50692;53.314;-6.300;2023-07-08T09:50:27;3.83;;;1.52;;
64367;SDS011;50692;53.314;-6.300;2023-07-08T09:53:14;2.78;;;1.23;;
64367;SDS011;50692;53.314;-6.300;2023-07-08T09:56:02;3.83;;;1.08;;
64367;SDS011;50692;53.314;-6.300;2023-07-08T09:58:49;2.88;;;0.98;;
64367;SDS011;50692;53.314;-6.300;2023-07-08T10:01:35;3.50;;;1.10;;
64367;SDS011;50692;53.314;-6.300;2023-07-08T10:04:23;3.10;;;1.05;;
64367;SDS011;50692;53.314;-6.300;2023-07-08T10:07:09;5.03;;;1.10;;
64367;SDS011;50692;53.314;-6.300;2023-07-08T10:10:03;1.88;;;1.00;;
64367;SDS011;50692;53.314;-6.300;2023-07-08T10:12:58;4.05;;;1.50;;
64367;SDS011;50692;53.314;-6.300;2023-07-08T10:15:52;2.90;;;1.17;;
64367;SDS011;50692;53.314;-6.300;2023-07-08T10:18:44;4.28;;;1.20;;
64367;SDS011;50692;53.314;-6.300;2023-07-08T10:30:21;3.85;;;1.40;;
64367;SDS011;50692;53.314;-6.300;2023-07-08T10:37:21;2.45;;;0.90;;
64367;SDS011;50692;53.314;-6.300;2023-07-08T10:46:42;5.00;;;1.60;;
64367;SDS011;50692;53.314;-6.300;2023-07-08T10:53:09;4.63;;;1.48;;
64367;SDS011;50692;53.314;-6.300;2023-07-08T11:08:39;1.75;;;1.17;;
64367;SDS011;50692;53.314;-6.300;2023-07-08T11:17:33;4.35;;;1.23;;
64367;SDS011;50692;53.314;-6.300;2023-07-08T11:20:31;3.40;;;1.25;;
64367;SDS011;50692;53.314;-6.300;2023-07-08T11:26:42;4.18;;;1.75;;
64367;SDS011;50692;53.314;-6.300;2023-07-08T11:29:39;4.35;;;1.33;;
64367;SDS011;50692;53.314;-6.300;2023-07-08T11:32:33;4.22;;;1.42;;
64367;SDS011;50692;53.314;-6.300;2023-07-08T11:35:29;4.23;;;1.27;;
64367;SDS011;50692;53.314;-6.300;2023-07-08T11:38:48;2.90;;;1.10;;
64367;SDS011;50692;53.314;-6.300;2023-07-08T11:41:35;4.90;;;1.15;;
64367;SDS011;50692;53.314;-6.300;2023-07-08T11:44:21;2.75;;;1.20;;
64367;SDS011;50692;53.314;-6.300;2023-07-08T11:47:13;2.78;;;1.27;;
64367;SDS011;50692;53.314;-6.300;2023-07-08T11:50:02;3.65;;;1.33;;
64367;SDS011;50692;53.314;-6.300;2023-07-08T11:52:55;3.83;;;1.67;;
64367;SDS011;50692;53.314;-6.300;2023-07-08T11:55:55;6.13;;;1.52;;
64367;SDS011;50692;53.314;-6.300;2023-07-08T12:02:00;4.85;;;1.42;;
64367;SDS011;50692;53.314;-6.300;2023-07-08T12:04:54;3.35;;;1.45;;
64367;SDS011;50692;53.314;-6.300;2023-07-08T12:07:46;5.28;;;1.10;;
64367;SDS011;50692;53.314;-6.300;2023-07-08T12:10:36;3.17;;;1.27;;
64367;SDS011;50692;53.314;-6.300;2023-07-08T12:13:25;2.20;;;1.02;;
64367;SDS011;50692;53.314;-6.300;2023-07-08T12:16:12;2.42;;;1.13;;
64367;SDS011;50692;53.314;-6.300;2023-07-08T12:18:59;4.57;;;1.40;;
64367;SDS011;50692;53.314;-6.300;2023-07-08T12:21:50;4.10;;;1.50;;
64367;SDS011;50692;53.314;-6.300;2023-07-08T12:24:36;3.45;;;1.25;;
64367;SDS011;50692;53.314;-6.300;2023-07-08T12:27:23;3.88;;;1.50;;
64367;SDS011;50692;53.314;-6.300;2023-07-08T12:30:10;4.45;;;1.38;;
64367;SDS011;50692;53.314;-6.300;2023-07-08T12:32:57;3.72;;;1.42;;
64367;SDS011;50692;53.314;-6.300;2023-07-08T12:35:45;2.10;;;0.93;;
64367;SDS011;50692;53.314;-6.300;2023-07-08T12:38:37;3.42;;;1.13;;
64367;SDS011;50692;53.314;-6.300;2023-07-08T12:41:26;4.18;;;1.13;;
64367;SDS011;50692;53.314;-6.300;2023-07-08T12:44:16;3.13;;;1.05;;
64367;SDS011;50692;53.314;-6.300;2023-07-08T12:47:11;2.75;;;1.20;;
64367;SDS011;50692;53.314;-6.300;2023-07-08T12:49:57;2.22;;;1.00;;
64367;SDS011;50692;53.314;-6.300;2023-07-08T12:52:45;4.63;;;1.30;;
64367;SDS011;50692;53.314;-6.300;2023-07-08T12:55:33;2.22;;;1.00;;
64367;SDS011;50692;53.314;-6.300;2023-07-08T12:58:29;3.85;;;1.17;;
64367;SDS011;50692;53.314;-6.300;2023-07-08T13:01:20;3.30;;;1.20;;
64367;SDS011;50692;53.314;-6.300;2023-07-08T13:04:12;4.47;;;1.40;;
64367;SDS011;50692;53.314;-6.300;2023-07-08T13:06:59;2.35;;;1.00;;
64367;SDS011;50692;53.314;-6.300;2023-07-08T13:09:46;2.70;;;1.20;;
64367;SDS011;50692;53.314;-6.300;2023-07-08T13:12:34;3.00;;;1.10;;
64367;SDS011;50692;53.314;-6.300;2023-07-08T13:15:34;3.13;;;1.05;;
64367;SDS011;50692;53.314;-6.300;2023-07-08T13:18:34;3.00;;;1.10;;
64367;SDS011;50692;53.314;-6.300;2023-07-08T13:21:22;2.53;;;1.42;;
64367;SDS011;50692;53.314;-6.300;2023-07-08T13:24:14;1.35;;;0.80;;
64367;SDS011;50692;53.314;-6.300;2023-07-08T13:27:00;3.20;;;1.00;;
64367;SDS011;50692;53.314;-6.300;2023-07-08T13:29:54;3.25;;;1.13;;
64367;SDS011;50692;53.314;-6.300;2023-07-08T13:32:42;1.88;;;0.90;;
64367;SDS011;50692;53.314;-6.300;2023-07-08T13:35:35;3.42;;;0.90;;
64367;SDS011;50692;53.314;-6.300;2023-07-08T13:38:26;3.67;;;1.25;;
64367;SDS011;50692;53.314;-6.300;2023-07-08T13:41:20;3.63;;;1.38;;
64367;SDS011;50692;53.314;-6.300;2023-07-08T13:44:08;2.03;;;1.05;;
64367;SDS011;50692;53.314;-6.300;2023-07-08T13:46:57;3.05;;;1.30;;
64367;SDS011;50692;53.314;-6.300;2023-07-08T13:49:45;3.00;;;1.00;;
64367;SDS011;50692;53.314;-6.300;2023-07-08T13:52:31;4.03;;;1.27;;
64367;SDS011;50692;53.314;-6.300;2023-07-08T13:55:17;2.67;;;1.23;;
64367;SDS011;50692;53.314;-6.300;2023-07-08T13:58:04;3.28;;;1.30;;
64367;SDS011;50692;53.314;-6.300;2023-07-08T14:00:51;4.72;;;1.30;;
64367;SDS011;50692;53.314;-6.300;2023-07-08T14:03:37;2.97;;;1.05;;
64367;SDS011;50692;53.314;-6.300;2023-07-08T14:06:24;4.05;;;1.40;;
64367;SDS011;50692;53.314;-6.300;2023-07-08T14:12:00;3.72;;;1.35;;
64367;SDS011;50692;53.314;-6.300;2023-07-08T14:14:46;2.15;;;1.00;;
64367;SDS011;50692;53.314;-6.300;2023-07-08T14:17:32;4.05;;;1.17;;
64367;SDS011;50692;53.314;-6.300;2023-07-08T14:20:17;2.05;;;1.00;;
64367;SDS011;50692;53.314;-6.300;2023-07-08T14:23:04;3.22;;;1.23;;
64367;SDS011;50692;53.314;-6.300;2023-07-08T14:25:50;2.33;;;1.00;;
64367;SDS011;50692;53.314;-6.300;2023-07-08T14:28:37;4.82;;;1.20;;
64367;SDS011;50692;53.314;-6.300;2023-07-08T14:31:23;2.85;;;1.33;;
64367;SDS011;50692;53.314;-6.300;2023-07-08T14:34:26;4.45;;;1.30;;
64367;SDS011;50692;53.314;-6.300;2023-07-08T14:37:15;4.65;;;1.08;;
64367;SDS011;50692;53.314;-6.300;2023-07-08T14:43:14;2.45;;;1.00;;
64367;SDS011;50692;53.314;-6.300;2023-07-08T14:46:04;3.85;;;1.40;;
64367;SDS011;50692;53.314;-6.300;2023-07-08T14:48:51;3.22;;;1.30;;
64367;SDS011;50692;53.314;-6.300;2023-07-08T14:51:37;2.63;;;1.10;;
64367;SDS011;50692;53.314;-6.300;2023-07-08T14:54:23;2.20;;;1.08;;
64367;SDS011;50692;53.314;-6.300;2023-07-08T14:57:09;2.88;;;1.27;;
64367;SDS011;50692;53.314;-6.300;2023-07-08T15:00:00;2.00;;;1.08;;
64367;SDS011;50692;53.314;-6.300;2023-07-08T15:02:50;2.13;;;1.15;;
64367;SDS011;50692;53.314;-6.300;2023-07-08T15:05:38;2.83;;;1.10;;
64367;SDS011;50692;53.314;-6.300;2023-07-08T15:08:25;3.45;;;1.42;;
64367;SDS011;50692;53.314;-6.300;2023-07-08T15:11:11;2.65;;;1.10;;
64367;SDS011;50692;53.314;-6.300;2023-07-08T15:13:58;2.80;;;1.60;;
64367;SDS011;50692;53.314;-6.300;2023-07-08T15:16:46;3.90;;;1.50;;
64367;SDS011;50692;53.314;-6.300;2023-07-08T15:19:32;5.00;;;1.23;;
64367;SDS011;50692;53.314;-6.300;2023-07-08T15:22:20;4.90;;;1.50;;
64367;SDS011;50692;53.314;-6.300;2023-07-08T15:25:07;2.20;;;1.30;;
64367;SDS011;50692;53.314;-6.300;2023-07-08T15:27:56;3.03;;;1.00;;
64367;SDS011;50692;53.314;-6.300;2023-07-08T15:30:42;3.88;;;1.20;;
64367;SDS011;50692;53.314;-6.300;2023-07-08T15:33:28;3.97;;;1.38;;
64367;SDS011;50692;53.314;-6.300;2023-07-08T15:36:14;4.90;;;1.50;;
64367;SDS011;50692;53.314;-6.300;2023-07-08T15:39:00;3.92;;;1.48;;
64367;SDS011;50692;53.314;-6.300;2023-07-08T15:41:46;3.00;;;1.60;;
64367;SDS011;50692;53.314;-6.300;2023-07-08T15:44:32;4.90;;;1.40;;
64367;SDS011;50692;53.314;-6.300;2023-07-08T15:47:18;3.83;;;1.40;;
64367;SDS011;50692;53.314;-6.300;2023-07-08T15:50:09;2.13;;;1.25;;
64367;SDS011;50692;53.314;-6.300;2023-07-08T15:52:59;4.60;;;1.38;;
64367;SDS011;50692;53.314;-6.300;2023-07-08T15:55:46;3.47;;;1.60;;
64367;SDS011;50692;53.314;-6.300;2023-07-08T15:58:33;2.47;;;1.40;;
64367;SDS011;50692;53.314;-6.300;2023-07-08T16:01:20;2.65;;;1.13;;
64367;SDS011;50692;53.314;-6.300;2023-07-08T16:07:11;2.40;;;1.33;;
64367;SDS011;50692;53.314;-6.300;2023-07-08T16:09:57;2.58;;;1.05;;
64367;SDS011;50692;53.314;-6.300;2023-07-08T16:12:43;3.95;;;1.48;;
64367;SDS011;50692;53.314;-6.300;2023-07-08T16:15:31;3.72;;;1.38;;
64367;SDS011;50692;53.314;-6.300;2023-07-08T16:18:19;3.45;;;1.52;;
64367;SDS011;50692;53.314;-6.300;2023-07-08T16:21:06;3.05;;;1.20;;
64367;SDS011;50692;53.314;-6.300;2023-07-08T16:23:52;3.05;;;1.40;;
64367;SDS011;50692;53.314;-6.300;2023-07-08T16:26:38;2.53;;;1.23;;
64367;SDS011;50692;53.314;-6.300;2023-07-08T16:29:25;4.78;;;1.20;;
64367;SDS011;50692;53.314;-6.300;2023-07-08T16:32:13;2.55;;;1.60;;
64367;SDS011;50692;53.314;-6.300;2023-07-08T16:34:59;4.03;;;1.20;;
64367;SDS011;50692;53.314;-6.300;2023-07-08T16:37:50;3.20;;;1.40;;
64367;SDS011;50692;53.314;-6.300;2023-07-08T16:40:37;2.38;;;1.05;;
64367;SDS011;50692;53.314;-6.300;2023-07-08T16:43:28;2.83;;;1.00;;
64367;SDS011;50692;53.314;-6.300;2023-07-08T16:46:16;2.72;;;1.20;;
64367;SDS011;50692;53.314;-6.300;2023-07-08T16:49:03;4.80;;;1.42;;
64367;SDS011;50692;53.314;-6.300;2023-07-08T16:51:49;1.70;;;1.08;;
64367;SDS011;50692;53.314;-6.300;2023-07-08T16:54:35;34.65;;;6.80;;
64367;SDS011;50692;53.314;-6.300;2023-07-08T16:57:22;3.40;;;1.60;;
64367;SDS011;50692;53.314;-6.300;2023-07-08T17:00:11;1.75;;;1.20;;
64367;SDS011;50692;53.314;-6.300;2023-07-08T17:02:59;3.00;;;1.08;;
64367;SDS011;50692;53.314;-6.300;2023-07-08T17:05:45;3.47;;;1.15;;
64367;SDS011;50692;53.314;-6.300;2023-07-08T17:08:31;3.17;;;1.40;;
64367;SDS011;50692;53.314;-6.300;2023-07-08T17:11:17;3.03;;;1.20;;
64367;SDS011;50692;53.314;-6.300;2023-07-08T17:14:03;2.10;;;1.15;;
64367;SDS011;50692;53.314;-6.300;2023-07-08T17:16:48;2.03;;;0.90;;
64367;SDS011;50692;53.314;-6.300;2023-07-08T17:19:34;2.70;;;1.00;;
64367;SDS011;50692;53.314;-6.300;2023-07-08T17:22:21;3.30;;;1.15;;
64367;SDS011;50692;53.314;-6.300;2023-07-08T17:25:12;4.28;;;1.50;;
64367;SDS011;50692;53.314;-6.300;2023-07-08T17:28:02;3.65;;;1.25;;
64367;SDS011;50692;53.314;-6.300;2023-07-08T17:30:50;2.22;;;1.17;;
64367;SDS011;50692;53.314;-6.300;2023-07-08T17:33:38;2.35;;;1.10;;
64367;SDS011;50692;53.314;-6.300;2023-07-08T17:36:31;3.30;;;1.55;;
64367;SDS011;50692;53.314;-6.300;2023-07-08T17:39:19;2.85;;;1.38;;
64367;SDS011;50692;53.314;-6.300;2023-07-08T17:42:05;3.10;;;1.20;;